Главная страница
METAR-TAF:

METAR-TAF

Аэропорты :

Кадала

Чита, Россия

широта: 52-05N, долгота: 113-29E, высота над уровнем моря: 685 м

Текущие метеонаблюдения

Эта сводка был подготовлена 41 минут назад, в 10:30 UTC
Ветер 4 Узел от восточный
Температура 12°C
Влажность 47%
Давление 1017 hPa
Видимость 10 км и более

METAR: UIAA 241030Z 10002MPS 9999 NSC 12/01 Q1017 R29/CLRD70 NOSIG RMK QFE704/0939

Время: 20:11 (11:11 UTC)

Прогноз

Эта сводка был подготовлена 3 часа и 11 минут назад, в 08:00 UTC
Прогноз действительный с 24-го 09 UTC до 25-го 09 UTC
Ветер 6 Узел от восточный
Видимость 10 км и более
Отдельные облака на высоте 4000 фута, Кучево-дождевые.

TAF: UIAA 240800Z 2409/2509 08003MPS 9999 SCT040CB

Метеонаблюдения и прогнозы для более 4000 аэропортов (сводки METAR и TAF).

Имеющиеся станции представлены на карте желтыми и красными точками.

Чтобы увидеть название станции, наведите на нее мышь.

Затем щелкните, чтобы увидеть метеонаблюдения и метеопрогнозы.

Управление картой: чтобы увеличить масштаб, щелкните зеленые кнопки с черным крестиком; чтобы уменьшить масштаб, щелкните зеленую кнопку с тире; для просмотра соседних карт щелкайте зеленые стрелки.


METAR-TAF: